Urandangie, Australia
Current Conditions -  °F | °C
As of 12:00 PM on Tuesday 21 Oct 2014 (Local Time) from YBMA Reporting Station
Clear Clear  
Wind Chill: 88°   Ceiling: Unl
Heat Index: 88°   Visibility: 6mi
Dew Point: 43°   Wind: 14mph
Humidity: 21%   Direction: 90°E
Pressure: 30.09"   Gusts: NA
Location:  21.6°S, 138.3°E
Report Text: YBMA 210200Z AUTO 09012KT 9999 // NCD 31/06 Q1019
Loading
Personal Weather Stations






























Interactive Weather Map
Tropical Storm Tracking
New forecast layout! Learn more

10-Day Weather Forecast

Advertisements
Track Severe Weather on mobile